Latest Coastal Weather Observations for Gabo Island (VIC)

IDN60701

Issued at 2:41 pm EDT Friday 27 March 2015 (issued every 10 minutes, with the page automatically refreshed every 10 minutes)

About coastal observations | Map of coastal stations | Coastal observations for NSW | Marine services | Other Formats
Station Details ID: 084016 Name: GABO ISLAND LIGHTHOUSE Lat: -37.57 Lon: 149.92 Height: 15.2 m
Data from the previous 72 hours. | See also: Recent months at Gabo Island (VIC)
Date/Time
EDT
Temp

°C
Wind Pressure Rain
since 9am
mm
Weather Cloud Vis
km
Sea
Height
m
Swell
Dir
 
Speed
knots
Gust
knots
hPa Trend Height
m
Period
s
Dir
27/02:30pm 17.3 W 28 37 1015.7 - 0.0 - - - - - - -
27/02:03pm 17.9 WSW 27 37 1015.7 - 0.0 - - - - - - -
27/02:00pm 17.6 WSW 28 37 1015.7 - 0.0 - - - - - - -
27/01:57pm 18.0 WSW 27 37 1015.8 - 0.0 - - - - - - -
27/01:30pm 18.3 WSW 29 36 1015.8 - 0.0 - - - - - - -
27/01:00pm 18.1 WSW 30 41 1015.7 - 0.0 - - - - - - -
27/12:30pm 18.4 W 35 45 1015.6 - 0.0 - - - - - - -
27/12:00pm 19.0 W 31 43 1015.3 - 0.0 - - - - - - -
27/11:55am 19.0 W 29 39 1015.5 - 0.0 - - - - - - -
27/11:51am 18.9 W 27 41 1015.5 - 0.0 - - - - - - -
27/11:41am 18.0 W 39 49 1015.5 - 0.0 - - - - - - -
27/11:30am 18.7 W 28 38 1015.5 - 0.0 - - - - - - -
27/11:17am 18.9 W 29 42 1015.4 - 0.0 - - - - - - -
27/11:00am 19.3 W 20 30 1015.5 - 0.0 - - - - - - -
27/10:51am 18.5 W 20 30 1015.5 - 0.0 - - - - - - -
27/10:30am 18.5 W 13 18 1015.8 - 0.0 - - - - - - -
27/10:00am 17.8 W 9 12 1016.0 - 0.0 - - - - - - -
27/09:30am 16.8 WNW 7 9 1016.1 - 0.0 - - - - - - -
27/09:00am 15.9 WNW 7 10 1016.3 - 0.0 Fine Mostly clear 40 1 1.0 - S
27/08:30am 15.3 WNW 7 11 1016.3 - 0.0 - - - - - - -
27/08:00am 14.7 NW 7 11 1016.1 - 0.0 - - - - - - -
27/07:30am 14.0 NW 7 10 1015.8 - 0.0 - - - - - - -
27/07:00am 14.1 NW 8 11 1015.4 - 0.0 - - - - - - -
27/06:30am 13.9 NW 8 11 1015.2 - 0.0 - - - - - - -
27/06:00am 13.8 NNW 7 10 1014.9 - 0.0 - - - - - - -
27/05:30am 13.9 NNW 7 10 1014.9 - 0.0 - - - - - - -
27/05:00am 14.3 NW 8 11 1015.0 - 0.0 - - - - - - -
27/04:30am 14.4 NNW 9 14 1015.2 - 0.0 - - - - - - -
27/04:00am 14.2 NNW 8 11 1015.2 - 0.0 - - - - - - -
27/03:30am 14.3 NNW 9 14 1015.2 - 0.0 - - - - - - -
27/03:00am 14.6 NNW 10 14 1015.5 - 0.0 Fine Clear 30 1 1.0 - S
27/02:30am 14.5 NNW 9 13 1015.8 - 0.0 - - - - - - -
27/02:00am 14.7 NW 10 13 1016.0 - 0.0 - - - - - - -
27/01:30am 14.8 NW 11 15 1016.1 - 0.0 - - - - - - -
27/01:00am 14.3 NNW 9 12 1016.4 - 0.0 - - - - - - -
27/12:30am 14.5 NNW 8 12 1016.4 - 0.0 - - - - - - -
27/12:00am 12.7 NNW 6 9 1016.5 - 0.0 - - - - - - -
 
Date/Time
EDT
Temp

°C
Wind Pressure Rain
since 9am
mm
Weather Cloud Vis
km
Sea
Height
m
Swell
Dir
 
Speed
knots
Gust
knots
hPa Trend Height
m
Period
s
Dir
26/11:30pm 13.3 N 3 4 1016.7 - 0.0 - - - - - - -
26/11:00pm 13.3 N 5 8 1016.9 - 0.0 - - - - - - -
26/10:30pm 13.5 N 8 9 1017.2 - 0.0 - - - - - - -
26/10:00pm 13.5 NNW 6 7 1017.4 - 0.0 - - - - - - -
26/09:30pm 13.1 NNW 6 6 1017.4 - 0.0 - - - - - - -
26/09:00pm 14.3 WNW 6 7 1017.2 - 0.0 Fine Mostly clear 30 1 1.0 - S
26/08:30pm 15.4 WSW 7 9 1017.1 - 0.0 - - - - - - -
26/08:00pm 16.5 SW 8 10 1016.7 - 0.0 - - - - - - -
26/07:30pm 16.2 SSW 9 11 1016.3 - 0.0 - - - - - - -
26/07:00pm 16.6 SSW 10 13 1016.2 - 0.0 - - - - - - -
26/06:30pm 16.9 SW 14 17 1015.9 - 0.0 - - - - - - -
26/06:00pm 17.2 SW 16 19 1015.7 - 0.0 - - - - - - -
26/05:30pm 16.9 SW 17 22 1015.5 - 0.0 - - - - - - -
26/05:00pm 16.7 SSW 19 22 1015.4 - 0.0 - - - - - - -
26/04:30pm 16.7 SW 19 23 1015.4 - 0.0 - - - - - - -
26/04:00pm 16.5 SW 22 26 1015.0 - 0.0 - - - - - - -
26/03:30pm 16.7 SW 21 26 1015.3 - 0.0 - - - - - - -
26/03:00pm 16.6 SW 25 29 1014.9 - 0.0 Fine Mostly cloudy 30 2 1.0 - S
26/02:30pm 16.8 SW 24 30 1015.0 - 0.0 - - - - - - -
26/02:00pm 17.3 SSW 27 31 1014.9 - 0.0 - - - - - - -
26/01:30pm 17.9 SSW 26 31 1014.9 - 0.0 - - - - - - -
26/01:00pm 18.1 SSW 25 29 1014.8 - 0.0 - - - - - - -
26/12:30pm 18.5 SSW 20 25 1015.1 - 0.0 - - - - - - -
26/12:22pm 19.7 SSW 19 22 1015.2 - 0.0 - - - - - - -
26/12:00pm 19.9 SSW 6 7 1014.9 - 0.0 - - - - - - -
26/11:30am 19.3 SW 9 11 1015.2 - 0.0 - - - - - - -
26/11:00am 19.0 SW 11 13 1015.3 - 0.0 - - - - - - -
26/10:30am 19.3 WSW 9 11 1015.2 - 0.0 - - - - - - -
26/10:00am 19.0 W 9 11 1015.1 - 0.0 - - - - - - -
26/09:30am 18.3 WNW 9 11 1015.1 - 0.0 - - - - - - -
26/09:00am 17.3 W 10 13 1014.9 - 0.0 Fine Mostly clear 40 <0.5 1.0 - S
26/08:30am 16.3 WSW 13 19 1014.9 - 0.0 - - - - - - -
26/08:00am 15.9 WNW 9 11 1014.5 - 0.0 - - - - - - -
26/07:30am 15.5 W 7 9 1014.3 - 0.0 - - - - - - -
26/07:00am 15.6 WSW 4 5 1014.2 - 0.0 - - - - - - -
26/06:30am 16.7 WNW 7 11 1014.2 - 0.0 - - - - - - -
26/06:00am 17.7 N 14 17 1013.8 - 0.0 - - - - - - -
26/05:30am 17.6 N 14 18 1013.9 - 0.0 - - - - - - -
26/05:00am 17.6 N 13 17 1013.8 - 0.0 - - - - - - -
26/04:30am 17.6 N 16 20 1013.9 - 0.0 - - - - - - -
26/04:00am 17.8 NNE 17 21 1014.0 - 0.0 - - - - - - -
26/03:30am 17.9 NNE 18 23 1014.0 - 0.0 - - - - - - -
26/03:00am 18.1 NNE 19 23 1014.1 - 0.0 Fine Clear 30 1 - - -
26/02:30am 18.2 NNE 21 25 1014.3 - 0.0 - - - - - - -
26/02:00am 18.2 NNE 19 25 1014.5 - 0.0 - - - - - - -
26/01:30am 18.5 NNE 16 21 1014.8 - 0.0 - - - - - - -
26/01:00am 18.9 NNE 20 26 1014.9 - 0.0 - - - - - - -
26/12:30am 18.7 NNE 16 23 1015.4 - 0.0 - - - - - - -
26/12:00am 18.9 NNE 18 24 1015.7 - 0.0 - - - - - - -
 
Date/Time
EDT
Temp

°C
Wind Pressure Rain
since 9am
mm
Weather Cloud Vis
km
Sea
Height
m
Swell
Dir
 
Speed
knots
Gust
knots
hPa Trend Height
m
Period
s
Dir
25/11:30pm 18.8 NNE 17 23 1016.0 - 0.0 - - - - - - -
25/11:00pm 18.6 NNE 16 19 1016.1 - 0.0 - - - - - - -
25/10:30pm 18.6 NNE 16 19 1016.4 - 0.0 - - - - - - -
25/10:00pm 18.4 NNE 15 19 1016.5 - 0.0 - - - - - - -
25/09:30pm 18.3 NE 17 19 1016.5 - 0.0 - - - - - - -
25/09:00pm 18.2 NE 17 19 1016.3 - 0.0 Fine Mostly clear 40 1 1.0 - E
25/08:30pm 18.0 NE 16 19 1016.4 - 0.0 - - - - - - -
25/08:00pm 18.0 NE 16 20 1016.2 - 0.0 - - - - - - -
25/07:30pm 17.9 NE 16 18 1016.1 - 0.0 - - - - - - -
25/07:00pm 17.9 NE 12 14 1016.1 - 0.0 - - - - - - -
25/06:30pm 17.9 NE 11 14 1016.1 - 0.0 - - - - - - -
25/06:00pm 18.2 NE 11 13 1015.8 - 0.0 - - - - - - -
25/05:30pm 18.4 ENE 10 11 1015.7 - 0.0 - - - - - - -
25/05:00pm 18.6 E 7 9 1015.9 - 0.0 - - - - - - -
25/04:30pm 18.8 SE 5 7 1016.1 - 0.0 - - - - - - -
25/04:00pm 19.2 S 7 9 1016.7 - 0.0 - - - - - - -
25/03:30pm 19.4 SSW 9 11 1016.9 - 0.0 - - - - - - -
25/03:00pm 17.6 SW 12 13 1017.1 - 0.0 Fine Mostly cloudy 50 1 1.0 - S
25/02:30pm 17.8 SSW 16 18 1017.2 - 0.0 - - - - - - -
25/02:00pm 17.7 SSW 16 19 1017.3 - 0.0 - - - - - - -
25/01:30pm 18.1 SSW 13 15 1017.5 - 0.0 - - - - - - -
25/01:00pm 18.1 SW 13 15 1018.0 - 0.0 - - - - - - -
25/12:30pm 17.8 SW 15 17 1017.9 - 0.0 - - - - - - -
25/12:00pm 17.7 SW 13 16 1017.8 - 0.0 - - - - - - -
25/11:30am 17.6 SW 13 15 1018.2 - 0.0 - - - - - - -
25/11:00am 17.2 SW 12 15 1018.4 - 0.0 - - - - - - -
25/10:30am 16.7 WSW 10 12 1018.2 - 0.0 - - - - - - -
25/10:00am 16.4 WSW 10 12 1017.9 - 0.0 - - - - - - -
25/09:30am 16.0 WSW 11 14 1017.9 - 0.0 - - - - - - -
25/09:00am 15.9 WSW 13 16 1017.7 - 9.8 Fine Mostly cloudy 40 1 1.0 - SE
25/08:30am 16.1 WSW 13 18 1017.5 - 9.8 - - - - - - -
25/08:00am 17.4 SSW 15 17 1017.2 - 9.8 - - - - - - -
25/07:30am 17.3 SSW 16 21 1016.6 - 9.8 - - - - - - -
25/07:00am 16.9 SSW 16 19 1016.2 - 9.8 - - - - - - -
25/06:30am 16.8 SSW 18 22 1016.0 - 9.8 - - - - - - -
25/06:00am 16.8 S 17 20 1015.9 - 9.8 - - - - - - -
25/05:30am 16.7 SSW 18 21 1015.8 - 9.8 - - - - - - -
25/05:00am 16.7 S 20 24 1015.5 - 9.8 - - - - - - -
25/04:30am 16.9 SSW 19 23 1015.5 - 9.8 - - - - - - -
25/04:00am 17.0 S 19 22 1014.9 - 9.8 - - - - - - -
25/03:30am 17.1 S 19 23 1015.1 - 9.8 - - - - - - -
25/03:00am 17.0 SSW 19 22 1015.2 - 9.8 Fine Partly cloudy 30 1 1.0 - SW
25/02:30am 17.1 S 20 24 1015.4 - 9.8 - - - - - - -
25/02:00am 17.2 S 22 25 1015.7 - 9.8 - - - - - - -
25/01:30am 17.1 S 21 25 1015.6 - 9.8 - - - - - - -
25/01:00am 16.9 S 23 26 1015.5 - 9.8 - - - - - - -
25/12:30am 16.7 S 24 28 1015.5 - 9.8 - - - - - - -
25/12:00am 17.0 S 24 29 1015.3 - 9.8 - - - - - - -
 
Date/Time
EDT
Temp

°C
Wind Pressure Rain
since 9am
mm
Weather Cloud Vis
km
Sea
Height
m
Swell
Dir
 
Speed
knots
Gust
knots
hPa Trend Height
m
Period
s
Dir
24/11:30pm 16.7 S 23 28 1015.5 - 9.8 - - - - - - -
24/11:19pm 16.5 S 20 26 1015.6 - 9.8 - - - - - - -
24/11:00pm 15.4 W 17 20 1015.6 - 9.8 - - - - - - -
24/10:30pm 14.9 W 15 19 1015.8 - 9.8 - - - - - - -
24/10:00pm 15.5 WSW 19 23 1015.4 - 8.4 - - - - - - -
24/09:59pm 15.4 WSW 20 23 1015.4 - 8.2 - - - - - - -
24/09:30pm 14.7 W 13 19 1015.6 - 4.4 - - - - - - -
24/09:00pm 15.6 WSW 19 22 1014.8 - 1.2 Rain Cloudy 10 1 1.0 - SW
24/08:30pm 16.0 WSW 20 26 1014.3 - 1.2 - - - - - - -
24/08:00pm 15.7 WSW 20 25 1013.8 - 1.2 - - - - - - -
24/07:30pm 15.8 WSW 19 24 1013.6 - 1.2 - - - - - - -
24/07:00pm 16.0 WSW 22 28 1013.2 - 1.2 - - - - - - -
24/06:30pm 16.2 WSW 23 27 1012.9 - 1.2 - - - - - - -
24/06:00pm 16.0 WSW 20 25 1012.5 - 1.2 - - - - - - -
24/05:30pm 16.8 WSW 24 29 1012.4 - 0.0 - - - - - - -
24/05:00pm 17.3 SW 24 31 1012.2 - 0.0 - - - - - - -
24/04:30pm 17.5 SW 23 28 1011.9 - 0.0 - - - - - - -
24/04:00pm 17.7 SW 26 30 1011.9 - 0.0 - - - - - - -
24/03:30pm 17.5 SW 28 32 1012.0 - 0.0 - - - - - - -
24/03:00pm 17.8 SW 27 31 1011.9 - 0.0 Fine Mostly cloudy 25 2 1.0 - SW

Other Formats:

Comma delimited format used in spreadsheet applications
http://www.bom.gov.au/fwo/IDN60701/IDN60701.94933.axf

JavaScript Object Notation format (JSON) in row-major order
http://www.bom.gov.au/fwo/IDN60701/IDN60701.94933.json